Time;durP1;ratioP1;P1;durP2;ratioP2;P2;SDS_P1;SDS_P2;PMS_P1;PMS_P2;Temp;Humidity;BMP_temperature;BMP_pressure;BME280_temperature;BME280_humidity;BME280_pressure;Samples;Min_cycle;Max_cycle;Signal;HPM_P1;HPM_P2
2022/09/15 00:01:29;;;;;;;1.70;1.10;;;;;;;15.71;100.00;100637.47;2617001;36;20074;-49
2022/09/15 00:03:57;;;;;;;1.90;1.10;;;;;;;15.75;100.00;100638.78;2616748;36;20597;-47
2022/09/15 00:06:26;;;;;;;1.97;1.20;;;;;;;15.73;100.00;100640.84;2615969;36;20058;-51
2022/09/15 00:08:54;;;;;;;1.63;1.10;;;;;;;15.73;100.00;100633.53;2617000;31;20519;-50
2022/09/15 00:11:24;;;;;;;1.70;1.07;;;;;;;15.71;100.00;100630.16;2616477;36;20022;-51
2022/09/15 00:13:54;;;;;;;4.32;1.23;;;;;;;15.61;100.00;100631.41;2616775;36;20069;-49
2022/09/15 00:16:27;;;;;;;3.67;1.75;;;;;;;15.55;100.00;100635.66;2617008;36;20589;-50
2022/09/15 00:18:55;;;;;;;5.43;1.20;;;;;;;15.49;100.00;100636.31;2608122;36;20452;-47
2022/09/15 00:21:28;;;;;;;3.50;1.30;;;;;;;15.42;100.00;100637.03;2615885;36;20574;-50
2022/09/15 00:23:56;;;;;;;1.70;1.17;;;;;;;15.32;100.00;100628.22;2616104;36;20098;-48
2022/09/15 00:26:27;;;;;;;5.10;1.33;;;;;;;15.35;100.00;100625.16;2616055;36;20030;-48
2022/09/15 00:28:57;;;;;;;2.72;1.17;;;;;;;15.28;100.00;100620.63;2616576;36;20023;-50
2022/09/15 00:31:29;;;;;;;1.60;1.40;;;;;;;15.20;100.00;100627.75;2616128;36;20031;-49
2022/09/15 00:34:01;;;;;;;1.75;1.20;;;;;;;15.14;100.00;100630.31;2617132;36;20030;-50
2022/09/15 00:36:30;;;;;;;2.95;1.77;;;;;;;15.03;100.00;100637.78;2617414;36;20037;-49
2022/09/15 00:39:01;;;;;;;5.80;1.70;;;;;;;14.98;100.00;100632.00;2617224;47;20058;-48
2022/09/15 00:41:29;;;;;;;2.03;1.65;;;;;;;14.93;100.00;100631.69;2615276;36;20062;-49
2022/09/15 00:43:59;;;;;;;4.03;1.53;;;;;;;14.90;100.00;100642.88;2615871;36;20042;-49
2022/09/15 00:46:32;;;;;;;4.22;1.80;;;;;;;14.86;100.00;100636.09;2615816;36;20042;-49
2022/09/15 00:49:10;;;;;;;2.63;1.95;;;;;;;14.85;100.00;100642.53;2615954;36;20041;-49
2022/09/15 00:51:47;;;;;;;2.63;2.03;;;;;;;14.86;100.00;100638.81;2613887;36;20029;-51
2022/09/15 00:54:19;;;;;;;3.92;2.08;;;;;;;14.80;100.00;100636.78;2614559;36;20061;-52
2022/09/15 00:56:51;;;;;;;4.15;2.55;;;;;;;14.73;100.00;100642.00;2615555;36;20578;-48
2022/09/15 00:59:22;;;;;;;5.15;2.67;;;;;;;14.63;100.00;100631.34;2615622;36;20816;-49
2022/09/15 01:02:00;;;;;;;4.57;2.88;;;;;;;14.62;100.00;100637.78;2616054;36;20026;-50
2022/09/15 01:04:29;;;;;;;7.13;3.63;;;;;;;14.63;100.00;100636.75;2615148;36;20925;-46
2022/09/15 01:07:03;;;;;;;9.05;3.53;;;;;;;14.58;100.00;100646.38;2615539;36;20022;-50
2022/09/15 01:09:38;;;;;;;6.28;4.68;;;;;;;14.53;100.00;100657.69;2613523;36;20042;-50
2022/09/15 01:12:07;;;;;;;8.73;5.03;;;;;;;14.54;100.00;100651.28;2615467;31;20067;-49
2022/09/15 01:14:36;;;;;;;6.50;4.70;;;;;;;14.61;100.00;100648.75;2614519;31;20034;-50
2022/09/15 01:17:15;;;;;;;9.02;4.63;;;;;;;14.57;100.00;100645.53;2611857;36;20041;-49
2022/09/15 01:20:12;;;;;;;9.82;5.10;;;;;;;14.58;100.00;100644.50;2604903;36;20456;-50
2022/09/15 01:22:56;;;;;;;8.25;5.05;;;;;;;14.49;100.00;100651.78;2607319;36;20046;-49
2022/09/15 01:25:48;;;;;;;8.65;5.40;;;;;;;14.52;100.00;100658.72;2607716;31;20538;-54
2022/09/15 01:28:37;;;;;;;7.78;4.95;;;;;;;14.59;100.00;100656.19;2614156;36;20027;-49
2022/09/15 01:31:15;;;;;;;6.68;3.60;;;;;;;14.60;100.00;100657.88;2615327;36;20034;-50
2022/09/15 01:33:48;;;;;;;10.32;4.97;;;;;;;14.60;100.00;100664.13;2614583;36;20637;-48
2022/09/15 01:36:23;;;;;;;7.00;4.20;;;;;;;14.61;100.00;100665.00;2615106;36;20026;-47
2022/09/15 01:38:59;;;;;;;8.57;3.80;;;;;;;14.60;100.00;100660.59;2615080;36;20122;-51
2022/09/15 01:41:31;;;;;;;6.68;3.08;;;;;;;14.67;100.00;100665.19;2615258;31;20023;-50
2022/09/15 01:44:05;;;;;;;4.53;2.60;;;;;;;14.69;100.00;100670.44;2613794;36;20653;-48
2022/09/15 01:46:39;;;;;;;7.18;3.15;;;;;;;14.90;100.00;100661.84;2611399;36;20038;-48
2022/09/15 01:49:11;;;;;;;8.02;2.22;;;;;;;14.90;100.00;100664.56;2610876;36;20125;-48
2022/09/15 01:51:41;;;;;;;6.43;2.10;;;;;;;14.83;100.00;100669.78;2609877;36;20038;-52
2022/09/15 01:54:12;;;;;;;3.85;2.13;;;;;;;14.90;100.00;100669.97;2609032;36;20038;-51
2022/09/15 01:56:40;;;;;;;4.18;1.90;;;;;;;14.98;100.00;100666.41;2609801;36;20609;-53
2022/09/15 01:59:10;;;;;;;7.68;1.58;;;;;;;14.89;100.00;100658.25;2609506;36;20061;-52
2022/09/15 02:01:50;;;;;;;4.85;1.55;;;;;;;14.93;100.00;100664.22;2610852;36;20030;-51
2022/09/15 02:04:24;;;;;;;7.15;2.10;;;;;;;14.93;100.00;100663.34;2609314;36;20034;-51
2022/09/15 02:06:57;;;;;;;7.75;1.75;;;;;;;14.91;100.00;100663.50;2609243;36;20042;-49
2022/09/15 02:09:31;;;;;;;4.57;1.45;;;;;;;15.02;100.00;100656.94;2607845;36;20066;-47
2022/09/15 02:12:06;;;;;;;6.93;1.90;;;;;;;15.10;100.00;100659.63;2610078;36;20451;-49
2022/09/15 02:14:47;;;;;;;3.22;1.27;;;;;;;15.13;100.00;100659.28;2608787;36;20478;-53
2022/09/15 02:17:21;;;;;;;2.40;1.27;;;;;;;15.21;100.00;100661.97;2610687;36;20122;-49
2022/09/15 02:19:52;;;;;;;5.38;1.40;;;;;;;15.31;100.00;100660.94;2608431;36;20046;-48
2022/09/15 02:22:26;;;;;;;6.63;1.30;;;;;;;15.29;100.00;100655.69;2610226;31;20543;-49
2022/09/15 02:25:01;;;;;;;5.53;1.23;;;;;;;15.31;100.00;100656.38;2609552;36;20041;-47
2022/09/15 02:27:33;;;;;;;3.80;1.20;;;;;;;15.26;100.00;100663.34;2609753;36;20147;-52
2022/09/15 02:30:06;;;;;;;3.47;1.17;;;;;;;15.31;100.00;100656.38;2605687;36;20137;-51
2022/09/15 02:32:40;;;;;;;3.38;1.13;;;;;;;15.29;100.00;100652.97;2609139;36;20558;-50
2022/09/15 02:35:12;;;;;;;3.90;1.10;;;;;;;15.23;100.00;100659.09;2608398;36;20092;-52
2022/09/15 02:37:40;;;;;;;4.97;1.00;;;;;;;15.14;100.00;100660.97;2609688;36;20030;-48
2022/09/15 02:40:09;;;;;;;3.75;1.05;;;;;;;15.19;100.00;100653.19;2608916;36;20042;-49
2022/09/15 02:42:38;;;;;;;4.43;1.48;;;;;;;15.18;100.00;100658.75;2608026;31;20547;-51
2022/09/15 02:45:07;;;;;;;4.35;1.30;;;;;;;15.20;100.00;100656.72;2609884;36;20030;-51
2022/09/15 02:47:38;;;;;;;2.65;1.33;;;;;;;15.24;100.00;100663.50;2609488;36;20065;-50
2022/09/15 02:50:08;;;;;;;4.38;1.05;;;;;;;15.27;100.00;100662.28;2609732;36;20619;-49
2022/09/15 02:52:37;;;;;;;7.32;1.40;;;;;;;15.28;100.00;100664.00;2608899;36;20065;-50
2022/09/15 02:55:06;;;;;;;1.85;0.90;;;;;;;15.40;100.00;100657.22;2608461;36;20121;-50
2022/09/15 02:57:34;;;;;;;3.55;1.10;;;;;;;15.35;100.00;100665.84;2608736;36;20046;-49
2022/09/15 03:00:16;;;;;;;2.20;0.88;;;;;;;15.30;100.00;100661.97;2608960;36;20034;-49
2022/09/15 03:02:49;;;;;;;5.93;1.10;;;;;;;15.52;100.00;100655.00;2607716;36;20062;-47
2022/09/15 03:05:19;;;;;;;3.38;0.90;;;;;;;15.47;100.00;100660.06;2609853;36;21883;-51
2022/09/15 03:07:48;;;;;;;1.80;0.90;;;;;;;15.47;100.00;100660.06;2607828;31;20065;-52
2022/09/15 03:10:17;;;;;;;2.40;0.87;;;;;;;15.37;100.00;100655.69;2607661;36;20049;-52
2022/09/15 03:12:46;;;;;;;3.05;1.35;;;;;;;15.28;100.00;100661.28;2607597;36;20030;-48
2022/09/15 03:15:17;;;;;;;3.78;1.00;;;;;;;15.46;100.00;100659.22;2609122;36;20600;-52
2022/09/15 03:17:49;;;;;;;2.80;1.00;;;;;;;15.50;100.00;100665.16;2607685;36;20041;-49
2022/09/15 03:20:21;;;;;;;3.60;0.80;;;;;;;15.51;100.00;100666.84;2609524;36;20061;-49
2022/09/15 03:22:50;;;;;;;3.20;1.00;;;;;;;15.47;100.00;100670.91;2609348;31;20038;-53
2022/09/15 03:25:18;;;;;;;7.97;1.10;;;;;;;15.42;100.00;100669.56;2607472;36;20051;-55
2022/09/15 03:27:47;;;;;;;1.20;0.68;;;;;;;15.59;100.00;100669.53;2609892;36;20037;-52
2022/09/15 03:30:16;;;;;;;1.52;0.90;;;;;;;15.60;100.00;100665.78;2607467;31;20050;-50
2022/09/15 03:32:44;;;;;;;3.03;0.90;;;;;;;15.67;100.00;100661.38;2608204;36;20033;-49
2022/09/15 03:35:15;;;;;;;3.15;0.98;;;;;;;15.77;100.00;100661.19;2608674;36;20046;-47
2022/09/15 03:37:44;;;;;;;1.90;0.90;;;;;;;15.68;100.00;100660.34;2609117;36;20038;-48
2022/09/15 03:40:13;;;;;;;2.70;0.68;;;;;;;15.72;100.00;100664.41;2609778;36;20038;-53
2022/09/15 03:42:41;;;;;;;2.83;0.88;;;;;;;15.68;100.00;100662.19;2609200;36;20442;-49
2022/09/15 03:45:10;;;;;;;4.10;1.20;;;;;;;15.71;100.00;100668.16;2608332;36;20046;-49
2022/09/15 03:47:38;;;;;;;3.05;0.80;;;;;;;15.82;100.00;100671.53;2608568;36;21403;-48
2022/09/15 03:50:08;;;;;;;2.83;0.98;;;;;;;15.75;100.00;100666.78;2609929;36;20034;-49
2022/09/15 03:52:39;;;;;;;4.60;0.60;;;;;;;15.72;100.00;100675.28;2609233;36;20023;-48
2022/09/15 03:55:08;;;;;;;7.75;1.55;;;;;;;15.67;100.00;100665.97;2608251;36;20062;-51
2022/09/15 03:57:36;;;;;;;;;;;;;;;15.65;100.00;100668.84;2609571;31;20668;-50
2022/09/15 04:00:07;;;;;;;2.15;0.73;;;;;;;15.67;100.00;100671.38;2608248;36;19950;-48
2022/09/15 04:02:35;;;;;;;2.50;0.82;;;;;;;15.63;100.00;100659.19;2609167;31;22148;-49
2022/09/15 04:05:03;;;;;;;2.43;0.77;;;;;;;15.59;100.00;100664.09;2608914;31;20066;-49
2022/09/15 04:07:31;;;;;;;3.65;0.85;;;;;;;15.59;100.00;100664.09;2609379;36;20444;-52
2022/09/15 04:10:03;;;;;;;2.85;1.10;;;;;;;15.61;100.00;100672.09;2608445;36;21210;-52
2022/09/15 04:12:31;;;;;;;6.20;1.02;;;;;;;15.70;100.00;100666.44;2606845;36;20031;-52
2022/09/15 04:15:00;;;;;;;6.03;2.20;;;;;;;15.63;100.00;100668.16;2607887;31;20079;-50
2022/09/15 04:17:28;;;;;;;4.27;1.67;;;;;;;15.64;100.00;100667.16;2608945;31;20065;-51
2022/09/15 04:19:57;;;;;;;4.50;1.07;;;;;;;15.58;100.00;100667.84;2609440;36;20359;-48
2022/09/15 04:22:25;;;;;;;4.00;1.57;;;;;;;15.57;100.00;100666.16;2609555;36;20306;-49
2022/09/15 04:24:53;;;;;;;1.63;0.85;;;;;;;15.50;100.00;100662.44;2608979;36;20035;-50
2022/09/15 04:27:24;;;;;;;3.97;0.90;;;;;;;15.70;100.00;100665.59;2608911;36;20042;-49
2022/09/15 04:29:53;;;;;;;3.42;1.95;;;;;;;15.61;100.00;100666.66;2609118;36;20023;-47
2022/09/15 04:32:22;;;;;;;4.32;1.08;;;;;;;15.52;100.00;100663.13;2609585;36;20034;-49
2022/09/15 04:34:50;;;;;;;2.75;1.13;;;;;;;15.53;100.00;100664.78;2610013;36;20071;-49
2022/09/15 04:37:19;;;;;;;3.33;1.00;;;;;;;15.51;100.00;100672.28;2609274;36;20038;-47
2022/09/15 04:39:47;;;;;;;1.90;0.90;;;;;;;15.51;100.00;100669.56;2608900;36;20041;-50
2022/09/15 04:42:15;;;;;;;2.83;1.00;;;;;;;15.56;100.00;100675.28;2608194;36;20292;-48
2022/09/15 04:44:46;;;;;;;1.50;0.87;;;;;;;15.58;100.00;100657.84;2609243;36;20038;-49
2022/09/15 04:47:15;;;;;;;1.30;0.70;;;;;;;15.57;100.00;100664.28;2610440;36;20424;-50
2022/09/15 04:49:43;;;;;;;3.27;0.77;;;;;;;15.48;100.00;100661.78;2609139;36;20071;-48
2022/09/15 04:52:11;;;;;;;2.50;0.90;;;;;;;15.50;100.00;100660.59;2610294;36;20448;-49
2022/09/15 04:54:39;;;;;;;1.63;0.90;;;;;;;15.63;100.00;100668.16;2608383;36;20069;-51
2022/09/15 04:57:08;;;;;;;6.67;1.40;;;;;;;15.54;100.00;100661.06;2609691;36;20527;-50
2022/09/15 04:59:37;;;;;;;6.82;1.15;;;;;;;15.50;100.00;100666.00;2608401;36;20076;-48
2022/09/15 05:02:07;;;;;;;7.28;1.30;;;;;;;15.45;100.00;100668.38;2609133;36;20074;-50
2022/09/15 05:04:36;;;;;;;5.03;0.93;;;;;;;15.48;100.00;100667.19;2610487;36;20030;-51
2022/09/15 05:07:04;;;;;;;3.35;0.80;;;;;;;15.48;100.00;100656.34;2609170;36;20023;-51
2022/09/15 05:09:33;;;;;;;1.38;0.68;;;;;;;15.41;100.00;100667.91;2606494;31;20073;-49
2022/09/15 05:12:01;;;;;;;5.07;0.77;;;;;;;15.50;100.00;100667.84;2609399;36;20027;-47
2022/09/15 05:14:30;;;;;;;4.03;0.90;;;;;;;15.48;100.00;100664.47;2610004;36;20061;-48
2022/09/15 05:17:01;;;;;;;3.83;1.00;;;;;;;15.50;100.00;100660.59;2610088;36;20039;-47
2022/09/15 05:19:32;;;;;;;2.35;0.98;;;;;;;15.50;100.00;100673.28;2608631;36;20035;-49
2022/09/15 05:22:01;;;;;;;5.30;1.15;;;;;;;15.59;100.00;100669.53;2609543;36;20038;-48
2022/09/15 05:24:29;;;;;;;2.00;0.80;;;;;;;15.56;100.00;100667.16;2608732;36;20062;-49
2022/09/15 05:26:57;;;;;;;4.40;1.30;;;;;;;15.57;100.00;100672.41;2609730;36;20030;-47
2022/09/15 05:29:26;;;;;;;6.50;1.20;;;;;;;15.54;100.00;100666.50;2610987;36;20544;-49
2022/09/15 05:31:54;;;;;;;3.60;1.20;;;;;;;15.69;100.00;100666.63;2609003;31;20538;-51
2022/09/15 05:34:22;;;;;;;1.40;0.77;;;;;;;15.65;100.00;100666.13;2608777;36;20042;-47
2022/09/15 05:36:53;;;;;;;5.00;1.15;;;;;;;15.63;100.00;100662.72;2609294;36;20030;-49
2022/09/15 05:39:22;;;;;;;4.43;1.30;;;;;;;15.71;100.00;100670.84;2609480;36;20035;-48
2022/09/15 05:41:50;;;;;;;3.00;0.85;;;;;;;15.90;100.00;100671.47;2611371;36;20034;-49
2022/09/15 05:44:20;;;;;;;4.25;1.10;;;;;;;15.90;100.00;100676.91;2609258;36;20565;-49
2022/09/15 05:46:48;;;;;;;4.75;1.02;;;;;;;15.86;100.00;100672.88;2609994;36;21765;-49
2022/09/15 05:49:17;;;;;;;3.23;0.77;;;;;;;15.91;100.00;100673.19;2609901;36;20034;-49
2022/09/15 05:51:45;;;;;;;2.97;1.08;;;;;;;15.89;100.00;100667.94;2610726;36;20061;-49
2022/09/15 05:54:16;;;;;;;10.57;0.93;;;;;;;15.89;100.00;100672.53;2610351;36;21513;-47
2022/09/15 05:56:44;;;;;;;3.05;1.10;;;;;;;15.98;100.00;100676.06;2611419;36;20328;-48
2022/09/15 05:59:12;;;;;;;5.90;2.53;;;;;;;15.99;100.00;100678.59;2610381;36;20034;-52
2022/09/15 06:01:41;;;;;;;2.43;0.80;;;;;;;15.93;100.00;100677.44;2610888;36;20068;-51
2022/09/15 06:04:09;;;;;;;4.78;0.85;;;;;;;16.02;100.00;100680.09;2610219;36;20572;-50
2022/09/15 06:06:37;;;;;;;2.88;1.10;;;;;;;16.03;100.00;100682.66;2610972;36;20063;-52
2022/09/15 06:09:07;;;;;;;3.80;1.00;;;;;;;15.95;100.00;100679.97;2609818;36;20035;-51
2022/09/15 06:11:38;;;;;;;3.00;1.00;;;;;;;16.01;100.00;100684.69;2611108;36;20575;-48
2022/09/15 06:14:06;;;;;;;4.75;0.85;;;;;;;15.92;100.00;100681.16;2609956;36;20026;-50
2022/09/15 06:16:36;;;;;;;4.47;0.97;;;;;;;15.80;100.00;100695.28;2610998;31;20088;-51
2022/09/15 06:19:04;;;;;;;2.38;0.95;;;;;;;15.83;100.00;100686.81;2611049;31;20326;-50
2022/09/15 06:21:34;;;;;;;3.13;0.90;;;;;;;15.98;100.00;100685.03;2614080;36;20034;-51
2022/09/15 06:24:05;;;;;;;7.38;0.90;;;;;;;16.10;100.00;100691.75;2610179;36;20038;-49
2022/09/15 06:26:35;;;;;;;3.05;0.77;;;;;;;16.21;100.00;100693.25;2610206;36;20040;-49
2022/09/15 06:29:07;;;;;;;3.78;0.80;;;;;;;16.25;100.00;100702.75;2610834;36;20038;-47
2022/09/15 06:31:37;;;;;;;3.58;1.38;;;;;;;16.29;100.00;100697.78;2613140;36;20034;-48
2022/09/15 06:34:05;;;;;;;3.33;0.85;;;;;;;16.28;100.00;100707.81;2613275;36;20495;-50
2022/09/15 06:36:34;;;;;;;4.10;1.00;;;;;;;16.34;100.00;100700.84;2611494;36;20030;-50
2022/09/15 06:39:02;;;;;;;2.50;0.90;;;;;;;16.22;100.00;100718.53;2609868;36;20041;-47
2022/09/15 06:41:30;;;;;;;6.27;1.00;;;;;;;16.50;100.00;100724.31;2610215;36;20046;-48
2022/09/15 06:43:59;;;;;;;3.97;1.00;;;;;;;16.33;100.00;100731.72;2611086;36;20042;-49
2022/09/15 06:46:30;;;;;;;3.40;0.90;;;;;;;15.90;100.00;100742.06;2609720;36;20041;-49
2022/09/15 06:48:58;;;;;;;2.78;1.20;;;;;;;15.86;100.00;100744.28;2611253;36;20421;-51
2022/09/15 06:51:30;;;;;;;3.53;1.00;;;;;;;15.92;100.00;100746.28;2610175;36;20045;-53
2022/09/15 06:53:58;;;;;;;5.55;1.40;;;;;;;15.76;100.00;100755.28;2611076;36;20168;-52
2022/09/15 06:56:26;;;;;;;3.20;1.30;;;;;;;15.45;100.00;100757.88;2609624;36;20035;-47
2022/09/15 06:58:55;;;;;;;5.07;1.00;;;;;;;15.56;100.00;100762.09;2609856;36;20307;-52
2022/09/15 07:01:26;;;;;;;8.27;1.88;;;;;;;15.64;100.00;100758.56;2613131;31;20409;-51
2022/09/15 07:03:59;;;;;;;4.90;1.27;;;;;;;15.83;100.00;100760.91;2611623;36;20030;-50
2022/09/15 07:06:30;;;;;;;3.30;0.82;;;;;;;16.05;100.00;100766.63;2609853;36;20038;-49
2022/09/15 07:08:59;;;;;;;4.32;1.10;;;;;;;16.16;100.00;100758.09;2612330;36;20042;-49
2022/09/15 07:11:27;;;;;;;;;;;;;;;16.27;100.00;100765.88;2613344;36;20423;-50
2022/09/15 07:13:56;;;;;;;2.72;0.85;;;;;;;16.18;100.00;100766.06;2610627;36;19939;-48
2022/09/15 07:16:25;;;;;;;5.10;0.90;;;;;;;16.52;100.00;100764.91;2612116;36;20046;-52
2022/09/15 07:19:01;;;;;;;2.25;0.80;;;;;;;16.61;100.00;100766.56;2609796;36;20026;-48
2022/09/15 07:21:29;;;;;;;3.42;1.00;;;;;;;16.65;100.00;100762.44;2610493;36;20101;-48
2022/09/15 07:23:59;;;;;;;6.68;1.20;;;;;;;16.73;100.00;100765.13;2609688;36;20038;-49
2022/09/15 07:26:30;;;;;;;3.42;1.30;;;;;;;16.80;100.00;100776.97;2609985;36;20045;-51
2022/09/15 07:29:00;;;;;;;7.70;1.35;;;;;;;17.13;100.00;100776.78;2613007;36;20038;-50
2022/09/15 07:31:30;;;;;;;3.97;0.77;;;;;;;17.22;100.00;100774.00;2610858;31;20057;-49
2022/09/15 07:34:01;;;;;;;3.10;0.82;;;;;;;17.34;100.00;100767.09;2610984;36;20366;-49
2022/09/15 07:36:30;;;;;;;3.53;0.90;;;;;;;17.67;100.00;100762.22;2609808;36;20546;-51
2022/09/15 07:38:59;;;;;;;2.25;0.70;;;;;;;17.78;100.00;100763.63;2609757;36;20591;-50
2022/09/15 07:41:30;;;;;;;3.83;0.77;;;;;;;17.59;100.00;100764.16;2609957;36;20531;-48
2022/09/15 07:44:00;;;;;;;3.40;0.88;;;;;;;17.57;100.00;100767.06;2610503;36;20034;-48
2022/09/15 07:46:31;;;;;;;5.97;1.05;;;;;;;17.43;100.00;100774.19;2610836;36;20053;-47
2022/09/15 07:49:03;;;;;;;1.58;0.73;;;;;;;17.65;100.00;100780.63;2610064;36;20065;-52
2022/09/15 07:51:32;;;;;;;6.40;0.90;;;;;;;17.77;100.00;100771.97;2610286;31;20514;-53
2022/09/15 07:54:00;;;;;;;7.10;1.25;;;;;;;17.71;100.00;100772.72;2610326;36;20034;-49
2022/09/15 07:56:28;;;;;;;2.73;1.00;;;;;;;18.06;100.00;100776.63;2610308;31;20732;-48
2022/09/15 07:58:58;;;;;;;3.58;1.00;;;;;;;18.15;100.00;100777.41;2613698;36;20654;-49
2022/09/15 08:01:26;;;;;;;;;;;;;;;18.35;100.00;100775.78;2610724;36;20038;-49
2022/09/15 08:03:54;;;;;;;3.15;0.80;;;;;;;18.37;100.00;100781.03;2610500;36;19950;-50
2022/09/15 08:06:27;;;;;;;3.53;0.90;;;;;;;18.31;100.00;100790.81;2611246;31;20041;-49
2022/09/15 08:08:56;;;;;;;4.38;1.17;;;;;;;18.34;100.00;100778.69;2610740;36;20451;-49
2022/09/15 08:11:25;;;;;;;4.85;0.75;;;;;;;18.26;100.00;100787.81;2610777;36;20262;-52
2022/09/15 08:13:53;;;;;;;4.85;1.08;;;;;;;18.37;100.00;100786.50;2610276;36;20023;-50
2022/09/15 08:16:23;;;;;;;0.98;0.55;;;;;;;18.14;100.00;100795.63;2609810;36;20042;-51
2022/09/15 08:18:54;;;;;;;7.32;1.35;;;;;;;18.33;100.00;100801.53;2610184;36;20042;-52
2022/09/15 08:21:26;;;;;;;3.15;1.15;;;;;;;18.21;100.00;100803.88;2613110;36;20065;-48
2022/09/15 08:23:56;;;;;;;2.90;1.10;;;;;;;18.17;100.00;100794.41;2610228;36;20483;-51
2022/09/15 08:26:26;;;;;;;2.70;0.95;;;;;;;18.28;100.00;100793.91;2611158;31;20073;-49
2022/09/15 08:28:55;;;;;;;4.03;0.95;;;;;;;18.38;100.00;100797.19;2610713;36;20246;-50
2022/09/15 08:31:25;;;;;;;4.53;0.82;;;;;;;18.33;100.00;100802.38;2611598;36;20030;-50
2022/09/15 08:33:55;;;;;;;2.50;0.60;;;;;;;18.42;100.00;100805.88;2613474;36;20034;-50
2022/09/15 08:36:26;;;;;;;6.00;0.60;;;;;;;18.63;100.00;100806.97;2613462;36;20061;-49
2022/09/15 08:38:54;;;;;;;1.55;0.60;;;;;;;18.58;100.00;100806.69;2610809;36;20041;-47
2022/09/15 08:41:27;;;;;;;2.08;0.70;;;;;;;18.77;100.00;100808.81;2610508;36;20043;-49
2022/09/15 08:44:04;;;;;;;5.55;0.80;;;;;;;18.98;100.00;100813.50;2610283;36;20041;-49
2022/09/15 08:46:38;;;;;;;4.00;0.70;;;;;;;19.11;100.00;100818.25;2610659;36;20034;-50
2022/09/15 08:49:11;;;;;;;2.85;0.75;;;;;;;18.77;100.00;100817.00;2610519;31;20022;-51
2022/09/15 08:51:47;;;;;;;1.80;0.60;;;;;;;18.81;100.00;100815.56;2609635;36;20662;-49
2022/09/15 08:54:21;;;;;;;2.80;0.68;;;;;;;18.73;100.00;100818.41;2610391;36;20060;-48
2022/09/15 08:56:50;;;;;;;3.05;0.73;;;;;;;18.88;100.00;100815.69;2610837;36;20034;-52
2022/09/15 08:59:20;;;;;;;2.85;0.90;;;;;;;18.83;100.00;100815.38;2609997;36;20072;-49
2022/09/15 09:02:06;;;;;;;2.67;0.70;;;;;;;19.11;100.00;100812.81;2615086;36;20447;-50
2022/09/15 09:04:55;;;;;;;1.75;0.80;;;;;;;19.05;100.00;100821.72;2614748;36;20030;-49
2022/09/15 09:07:47;;;;;;;3.78;0.80;;;;;;;19.04;100.00;100811.88;2616189;36;20034;-49
2022/09/15 09:10:20;;;;;;;2.72;0.57;;;;;;;19.01;100.00;100812.28;2614612;36;20022;-50
2022/09/15 09:13:07;;;;;;;3.58;0.93;;;;;;;18.75;100.00;100816.34;2615276;36;20069;-51
2022/09/15 09:15:48;;;;;;;1.33;0.60;;;;;;;19.15;100.00;100807.78;2615655;36;20026;-51
2022/09/15 09:18:29;;;;;;;4.65;1.20;;;;;;;19.54;100.00;100818.25;2614427;36;20026;-49
2022/09/15 09:21:05;;;;;;;2.75;0.98;;;;;;;19.70;100.00;100816.25;2614890;36;20022;-48
2022/09/15 09:23:44;;;;;;;5.18;0.80;;;;;;;19.66;100.00;100809.53;2615517;36;20034;-48
2022/09/15 09:26:14;;;;;;;2.92;0.95;;;;;;;19.88;100.00;100810.38;2615783;36;20448;-48
2022/09/15 09:28:49;;;;;;;3.60;0.88;;;;;;;19.85;100.00;100814.34;2614689;36;21449;-50
2022/09/15 09:31:21;;;;;;;4.45;0.98;;;;;;;20.05;100.00;100814.47;2616126;31;20476;-48
2022/09/15 09:33:56;;;;;;;2.58;0.98;;;;;;;20.09;100.00;100815.75;2614833;36;20049;-51
2022/09/15 09:36:24;;;;;;;3.78;0.80;;;;;;;20.22;100.00;100815.00;2614451;36;20038;-49
2022/09/15 09:38:57;;;;;;;2.60;0.88;;;;;;;20.13;100.00;100805.28;2615783;36;20444;-49
2022/09/15 09:41:34;;;;;;;3.10;0.70;;;;;;;20.47;100.00;100800.84;2614771;36;20159;-47
2022/09/15 09:44:04;;;;;;;7.03;1.02;;;;;;;20.10;100.00;100806.50;2614981;36;20038;-50
2022/09/15 09:46:33;;;;;;;3.58;0.65;;;;;;;20.17;100.00;100806.56;2614348;36;20018;-48
2022/09/15 09:49:06;;;;;;;3.60;0.82;;;;;;;20.06;100.00;100813.41;2614916;36;20068;-49
2022/09/15 09:51:37;;;;;;;2.35;0.50;;;;;;;20.42;100.00;100808.78;2616300;36;20045;-50
2022/09/15 09:54:14;;;;;;;2.67;0.90;;;;;;;20.10;100.00;100811.16;2615306;36;20448;-50
2022/09/15 09:56:44;;;;;;;1.75;0.60;;;;;;;20.30;100.00;100816.72;2615458;36;20077;-48
2022/09/15 09:59:35;;;;;;;3.05;1.00;;;;;;;20.06;100.00;100818.06;2614608;36;20680;-51
2022/09/15 10:02:14;;;;;;;3.25;0.75;;;;;;;19.88;100.00;100816.66;2616164;36;20053;-49
2022/09/15 10:04:44;;;;;;;4.47;1.30;;;;;;;19.81;100.00;100804.84;2614754;36;20563;-46
2022/09/15 10:07:13;;;;;;;4.78;0.85;;;;;;;20.21;100.00;100807.84;2613881;36;21615;-49
2022/09/15 10:09:51;;;;;;;2.67;0.82;;;;;;;20.36;100.00;100815.06;2615264;36;20061;-52
2022/09/15 10:12:23;;;;;;;1.27;0.70;;;;;;;20.73;100.00;100821.16;2615638;31;20034;-51
2022/09/15 10:14:54;;;;;;;5.88;0.90;;;;;;;20.54;100.00;100822.72;2611417;36;20034;-52
2022/09/15 10:17:25;;;;;;;3.15;0.80;;;;;;;20.37;100.00;100816.75;2613251;36;20564;-50
2022/09/15 10:19:56;;;;;;;1.88;0.85;;;;;;;20.60;100.00;100813.72;2614647;36;20035;-51
2022/09/15 10:22:28;;;;;;;2.42;0.70;;;;;;;20.61;100.00;100813.53;2614727;36;20051;-50
2022/09/15 10:24:59;;;;;;;4.47;0.93;;;;;;;20.35;100.00;100806.03;2615404;36;20027;-51
2022/09/15 10:27:31;;;;;;;2.50;0.82;;;;;;;20.40;100.00;100810.88;2615651;36;20416;-50
2022/09/15 10:30:17;;;;;;;3.20;0.70;;;;;;;20.71;100.00;100809.59;2615077;31;20030;-51
2022/09/15 10:32:45;;;;;;;4.18;1.08;;;;;;;20.88;100.00;100801.88;2615626;36;20085;-47
2022/09/15 10:35:17;;;;;;;3.25;0.80;;;;;;;21.00;100.00;100800.22;2616138;36;20401;-51
2022/09/15 10:38:00;;;;;;;6.72;0.98;;;;;;;21.27;100.00;100801.09;2615281;36;20034;-50
2022/09/15 10:40:35;;;;;;;2.53;0.77;;;;;;;20.97;100.00;100801.47;2614977;36;20069;-50
2022/09/15 10:43:22;;;;;;;2.90;0.80;;;;;;;21.11;100.00;100798.75;2615695;36;20041;-50
2022/09/15 10:46:00;;;;;;;5.97;1.02;;;;;;;21.11;100.00;100802.34;2615238;31;20412;-49
2022/09/15 10:48:41;;;;;;;1.40;0.80;;;;;;;21.13;100.00;100788.47;2614714;36;20035;-48
2022/09/15 10:51:23;;;;;;;1.90;0.65;;;;;;;21.33;100.00;100799.44;2615240;36;20030;-48
2022/09/15 10:54:04;;;;;;;3.25;0.80;;;;;;;20.51;100.00;100807.59;2614659;36;20511;-49
2022/09/15 10:56:41;;;;;;;4.05;0.70;;;;;;;20.70;100.00;100800.56;2615281;36;20033;-46
2022/09/15 10:59:35;;;;;;;3.42;0.85;;;;;;;20.64;100.00;100793.97;2614604;36;20034;-47
2022/09/15 11:02:24;;;;;;;1.98;0.90;;;;;;;20.76;100.00;100793.41;2615091;36;20548;-48
2022/09/15 11:05:11;;;;;;;5.72;1.02;;;;;;;20.85;100.00;100796.78;2614428;36;20074;-49
2022/09/15 11:07:48;;;;;;;4.03;1.10;;;;;;;20.61;100.00;100808.06;2614846;36;20169;-48
2022/09/15 11:10:26;;;;;;;2.13;1.08;;;;;;;20.36;100.00;100828.72;2614289;36;20030;-49
2022/09/15 11:13:10;;;;;;;4.55;1.00;;;;;;;19.66;100.00;100831.38;2615587;36;20034;-50
2022/09/15 11:15:53;;;;;;;7.65;1.30;;;;;;;19.61;100.00;100831.97;2614815;36;20034;-52
2022/09/15 11:18:44;;;;;;;3.35;1.00;;;;;;;19.37;100.00;100839.50;2614941;36;20022;-53
2022/09/15 11:21:25;;;;;;;4.20;0.85;;;;;;;18.89;100.00;100823.66;2613163;36;20033;-50
2022/09/15 11:24:04;;;;;;;4.05;0.90;;;;;;;18.90;100.00;100836.28;2614878;36;20042;-50
2022/09/15 11:26:38;;;;;;;1.77;0.82;;;;;;;19.08;100.00;100829.56;2614954;31;20048;-49
2022/09/15 11:29:20;;;;;;;3.40;1.00;;;;;;;19.42;100.00;100823.38;2613619;36;20023;-51
2022/09/15 11:31:53;;;;;;;4.93;1.23;;;;;;;19.45;100.00;100819.44;2614857;36;20039;-52
2022/09/15 11:34:26;;;;;;;7.57;0.90;;;;;;;19.33;100.00;100820.97;2614439;36;20155;-48
2022/09/15 11:37:01;;;;;;;2.72;0.80;;;;;;;19.89;100.00;100820.22;2615078;36;20575;-48
2022/09/15 11:39:34;;;;;;;1.30;0.68;;;;;;;20.48;100.00;100819.78;2614224;36;20030;-49